sensor_id;sensor_type;location;lat;lon;timestamp;P1;durP1;ratioP1;P2;durP2;ratioP2
33740;SDS011;20065;48.380;10.892;2023-05-15T00:01:03;7.57;;;5.87;;
33740;SDS011;20065;48.380;10.892;2023-05-15T00:03:49;11.27;;;6.97;;
33740;SDS011;20065;48.380;10.892;2023-05-15T00:06:36;10.30;;;7.50;;
33740;SDS011;20065;48.380;10.892;2023-05-15T00:09:22;9.20;;;6.60;;
33740;SDS011;20065;48.380;10.892;2023-05-15T00:12:08;9.47;;;6.63;;
33740;SDS011;20065;48.380;10.892;2023-05-15T00:14:55;9.70;;;6.17;;
33740;SDS011;20065;48.380;10.892;2023-05-15T00:17:41;8.50;;;6.10;;
33740;SDS011;20065;48.380;10.892;2023-05-15T00:20:27;8.97;;;6.47;;
33740;SDS011;20065;48.380;10.892;2023-05-15T00:23:13;10.03;;;6.97;;
33740;SDS011;20065;48.380;10.892;2023-05-15T00:25:59;10.33;;;6.97;;
33740;SDS011;20065;48.380;10.892;2023-05-15T00:28:46;9.23;;;6.17;;
33740;SDS011;20065;48.380;10.892;2023-05-15T00:31:35;8.90;;;7.33;;
33740;SDS011;20065;48.380;10.892;2023-05-15T00:34:22;9.50;;;6.20;;
33740;SDS011;20065;48.380;10.892;2023-05-15T00:37:09;8.90;;;6.97;;
33740;SDS011;20065;48.380;10.892;2023-05-15T00:39:57;10.60;;;8.00;;
33740;SDS011;20065;48.380;10.892;2023-05-15T00:42:44;9.47;;;7.17;;
33740;SDS011;20065;48.380;10.892;2023-05-15T00:45:31;10.53;;;7.90;;
33740;SDS011;20065;48.380;10.892;2023-05-15T00:48:18;12.03;;;8.40;;
33740;SDS011;20065;48.380;10.892;2023-05-15T00:51:07;14.27;;;8.50;;
33740;SDS011;20065;48.380;10.892;2023-05-15T00:53:54;12.17;;;8.10;;
33740;SDS011;20065;48.380;10.892;2023-05-15T00:56:41;12.00;;;8.80;;
33740;SDS011;20065;48.380;10.892;2023-05-15T00:59:29;11.53;;;8.97;;
33740;SDS011;20065;48.380;10.892;2023-05-15T01:02:17;11.87;;;9.10;;
33740;SDS011;20065;48.380;10.892;2023-05-15T01:05:06;11.23;;;8.50;;
33740;SDS011;20065;48.380;10.892;2023-05-15T01:08:41;11.00;;;7.90;;
33740;SDS011;20065;48.380;10.892;2023-05-15T01:11:17;10.73;;;7.53;;
33740;SDS011;20065;48.380;10.892;2023-05-15T01:14:05;11.50;;;7.80;;
33740;SDS011;20065;48.380;10.892;2023-05-15T01:16:52;8.93;;;6.90;;
33740;SDS011;20065;48.380;10.892;2023-05-15T01:19:38;9.90;;;8.30;;
33740;SDS011;20065;48.380;10.892;2023-05-15T01:22:40;11.57;;;8.20;;
33740;SDS011;20065;48.380;10.892;2023-05-15T01:28:28;12.30;;;8.60;;
33740;SDS011;20065;48.380;10.892;2023-05-15T01:31:18;11.60;;;9.37;;
33740;SDS011;20065;48.380;10.892;2023-05-15T01:34:07;13.20;;;9.27;;
33740;SDS011;20065;48.380;10.892;2023-05-15T01:36:55;13.17;;;9.63;;
33740;SDS011;20065;48.380;10.892;2023-05-15T01:39:44;13.13;;;10.67;;
33740;SDS011;20065;48.380;10.892;2023-05-15T01:42:33;12.77;;;9.70;;
33740;SDS011;20065;48.380;10.892;2023-05-15T01:45:22;16.60;;;10.27;;
33740;SDS011;20065;48.380;10.892;2023-05-15T01:48:09;11.87;;;9.30;;
33740;SDS011;20065;48.380;10.892;2023-05-15T01:51:00;13.87;;;9.50;;
33740;SDS011;20065;48.380;10.892;2023-05-15T01:53:48;14.10;;;10.10;;
33740;SDS011;20065;48.380;10.892;2023-05-15T01:56:34;12.90;;;9.63;;
33740;SDS011;20065;48.380;10.892;2023-05-15T01:59:22;14.07;;;9.90;;
33740;SDS011;20065;48.380;10.892;2023-05-15T02:02:10;12.37;;;9.37;;
33740;SDS011;20065;48.380;10.892;2023-05-15T02:04:58;12.20;;;9.80;;
33740;SDS011;20065;48.380;10.892;2023-05-15T02:07:45;12.80;;;9.27;;
33740;SDS011;20065;48.380;10.892;2023-05-15T02:10:33;11.63;;;8.70;;
33740;SDS011;20065;48.380;10.892;2023-05-15T02:13:20;10.57;;;8.30;;
33740;SDS011;20065;48.380;10.892;2023-05-15T02:16:09;11.20;;;7.87;;
33740;SDS011;20065;48.380;10.892;2023-05-15T02:18:56;10.47;;;7.90;;
33740;SDS011;20065;48.380;10.892;2023-05-15T02:21:42;8.83;;;6.90;;
33740;SDS011;20065;48.380;10.892;2023-05-15T02:24:28;11.00;;;8.40;;
33740;SDS011;20065;48.380;10.892;2023-05-15T02:33:28;9.60;;;7.57;;
33740;SDS011;20065;48.380;10.892;2023-05-15T02:36:24;10.33;;;7.30;;
33740;SDS011;20065;48.380;10.892;2023-05-15T02:39:15;9.37;;;7.57;;
33740;SDS011;20065;48.380;10.892;2023-05-15T02:42:02;12.20;;;7.47;;
33740;SDS011;20065;48.380;10.892;2023-05-15T02:44:50;9.70;;;7.40;;
33740;SDS011;20065;48.380;10.892;2023-05-15T02:47:39;10.73;;;7.20;;
33740;SDS011;20065;48.380;10.892;2023-05-15T02:50:26;10.10;;;7.27;;
33740;SDS011;20065;48.380;10.892;2023-05-15T02:53:13;15.23;;;8.00;;
33740;SDS011;20065;48.380;10.892;2023-05-15T02:56:00;9.63;;;6.97;;
33740;SDS011;20065;48.380;10.892;2023-05-15T02:58:47;10.30;;;7.50;;
33740;SDS011;20065;48.380;10.892;2023-05-15T03:01:34;8.90;;;7.10;;
33740;SDS011;20065;48.380;10.892;2023-05-15T03:04:20;12.03;;;7.10;;
33740;SDS011;20065;48.380;10.892;2023-05-15T03:07:06;8.67;;;6.63;;
33740;SDS011;20065;48.380;10.892;2023-05-15T03:09:52;10.23;;;7.23;;
33740;SDS011;20065;48.380;10.892;2023-05-15T03:12:38;9.37;;;6.70;;
33740;SDS011;20065;48.380;10.892;2023-05-15T03:15:24;9.60;;;7.43;;
33740;SDS011;20065;48.380;10.892;2023-05-15T03:18:11;10.10;;;6.73;;
33740;SDS011;20065;48.380;10.892;2023-05-15T03:20:57;9.50;;;7.27;;
33740;SDS011;20065;48.380;10.892;2023-05-15T03:23:43;9.27;;;6.83;;
33740;SDS011;20065;48.380;10.892;2023-05-15T03:26:29;9.50;;;6.63;;
33740;SDS011;20065;48.380;10.892;2023-05-15T03:29:15;9.33;;;7.00;;
33740;SDS011;20065;48.380;10.892;2023-05-15T03:32:02;11.00;;;7.93;;
33740;SDS011;20065;48.380;10.892;2023-05-15T03:34:48;10.80;;;7.87;;
33740;SDS011;20065;48.380;10.892;2023-05-15T03:37:34;11.73;;;7.70;;
33740;SDS011;20065;48.380;10.892;2023-05-15T03:40:20;11.47;;;7.90;;
33740;SDS011;20065;48.380;10.892;2023-05-15T03:43:06;10.97;;;7.97;;
33740;SDS011;20065;48.380;10.892;2023-05-15T03:45:52;13.67;;;8.93;;
33740;SDS011;20065;48.380;10.892;2023-05-15T03:48:38;13.03;;;10.37;;
33740;SDS011;20065;48.380;10.892;2023-05-15T03:51:25;13.33;;;8.83;;
33740;SDS011;20065;48.380;10.892;2023-05-15T03:54:12;15.20;;;9.33;;
33740;SDS011;20065;48.380;10.892;2023-05-15T03:56:58;20.33;;;10.37;;
33740;SDS011;20065;48.380;10.892;2023-05-15T03:59:45;16.03;;;10.63;;
33740;SDS011;20065;48.380;10.892;2023-05-15T04:02:31;16.50;;;10.80;;
33740;SDS011;20065;48.380;10.892;2023-05-15T04:05:17;16.50;;;10.57;;
33740;SDS011;20065;48.380;10.892;2023-05-15T04:08:06;16.50;;;11.07;;
33740;SDS011;20065;48.380;10.892;2023-05-15T04:10:54;15.77;;;10.50;;
33740;SDS011;20065;48.380;10.892;2023-05-15T04:13:40;15.10;;;11.13;;
33740;SDS011;20065;48.380;10.892;2023-05-15T04:16:26;20.80;;;13.27;;
33740;SDS011;20065;48.380;10.892;2023-05-15T04:19:12;18.63;;;11.67;;
33740;SDS011;20065;48.380;10.892;2023-05-15T04:21:58;17.57;;;12.50;;
33740;SDS011;20065;48.380;10.892;2023-05-15T04:24:45;17.40;;;11.70;;
33740;SDS011;20065;48.380;10.892;2023-05-15T04:27:31;19.60;;;14.00;;
33740;SDS011;20065;48.380;10.892;2023-05-15T04:30:18;17.80;;;13.13;;
33740;SDS011;20065;48.380;10.892;2023-05-15T04:33:04;16.73;;;11.33;;
33740;SDS011;20065;48.380;10.892;2023-05-15T04:35:50;18.97;;;12.20;;
33740;SDS011;20065;48.380;10.892;2023-05-15T04:38:36;17.93;;;12.37;;
33740;SDS011;20065;48.380;10.892;2023-05-15T04:41:22;18.43;;;12.67;;
33740;SDS011;20065;48.380;10.892;2023-05-15T04:44:09;17.40;;;12.63;;
33740;SDS011;20065;48.380;10.892;2023-05-15T04:46:55;16.60;;;11.87;;
33740;SDS011;20065;48.380;10.892;2023-05-15T04:49:41;16.30;;;12.27;;
33740;SDS011;20065;48.380;10.892;2023-05-15T04:52:27;15.90;;;11.57;;
33740;SDS011;20065;48.380;10.892;2023-05-15T04:55:13;16.43;;;11.10;;
33740;SDS011;20065;48.380;10.892;2023-05-15T04:58:00;15.07;;;11.43;;
33740;SDS011;20065;48.380;10.892;2023-05-15T05:00:46;16.00;;;11.20;;
33740;SDS011;20065;48.380;10.892;2023-05-15T05:03:32;15.33;;;11.87;;
33740;SDS011;20065;48.380;10.892;2023-05-15T05:06:18;15.57;;;10.40;;
33740;SDS011;20065;48.380;10.892;2023-05-15T05:09:04;17.33;;;11.93;;
33740;SDS011;20065;48.380;10.892;2023-05-15T05:11:50;19.40;;;10.83;;
33740;SDS011;20065;48.380;10.892;2023-05-15T05:14:37;17.60;;;11.07;;
33740;SDS011;20065;48.380;10.892;2023-05-15T05:17:26;15.43;;;11.43;;
33740;SDS011;20065;48.380;10.892;2023-05-15T05:20:12;15.90;;;11.80;;
33740;SDS011;20065;48.380;10.892;2023-05-15T05:22:58;14.20;;;10.90;;
33740;SDS011;20065;48.380;10.892;2023-05-15T05:25:45;13.83;;;10.43;;
33740;SDS011;20065;48.380;10.892;2023-05-15T05:28:31;15.43;;;11.80;;
33740;SDS011;20065;48.380;10.892;2023-05-15T05:31:17;14.17;;;11.00;;
33740;SDS011;20065;48.380;10.892;2023-05-15T05:34:03;15.82;;;10.68;;
33740;SDS011;20065;48.380;10.892;2023-05-15T05:36:50;15.00;;;11.33;;
33740;SDS011;20065;48.380;10.892;2023-05-15T05:39:36;13.17;;;9.70;;
33740;SDS011;20065;48.380;10.892;2023-05-15T05:42:22;15.43;;;11.07;;
33740;SDS011;20065;48.380;10.892;2023-05-15T05:45:09;15.70;;;11.87;;
33740;SDS011;20065;48.380;10.892;2023-05-15T05:47:55;14.20;;;10.27;;
33740;SDS011;20065;48.380;10.892;2023-05-15T05:50:42;15.33;;;10.20;;
33740;SDS011;20065;48.380;10.892;2023-05-15T05:53:28;15.93;;;11.30;;
33740;SDS011;20065;48.380;10.892;2023-05-15T05:56:14;15.27;;;11.00;;
33740;SDS011;20065;48.380;10.892;2023-05-15T05:59:00;14.63;;;10.23;;
33740;SDS011;20065;48.380;10.892;2023-05-15T06:01:47;13.13;;;10.47;;
33740;SDS011;20065;48.380;10.892;2023-05-15T06:04:35;16.97;;;11.53;;
33740;SDS011;20065;48.380;10.892;2023-05-15T06:07:21;16.80;;;11.50;;
33740;SDS011;20065;48.380;10.892;2023-05-15T06:10:08;16.07;;;10.70;;
33740;SDS011;20065;48.380;10.892;2023-05-15T06:12:54;18.07;;;12.57;;
33740;SDS011;20065;48.380;10.892;2023-05-15T06:15:40;14.80;;;11.37;;
33740;SDS011;20065;48.380;10.892;2023-05-15T06:18:27;15.27;;;10.90;;
33740;SDS011;20065;48.380;10.892;2023-05-15T06:21:14;16.63;;;11.80;;
33740;SDS011;20065;48.380;10.892;2023-05-15T06:24:00;15.47;;;10.40;;
33740;SDS011;20065;48.380;10.892;2023-05-15T06:26:46;15.30;;;11.90;;
33740;SDS011;20065;48.380;10.892;2023-05-15T06:29:32;15.37;;;10.50;;
33740;SDS011;20065;48.380;10.892;2023-05-15T06:32:20;19.07;;;11.87;;
33740;SDS011;20065;48.380;10.892;2023-05-15T06:35:06;15.53;;;11.27;;
33740;SDS011;20065;48.380;10.892;2023-05-15T06:37:53;16.00;;;11.17;;
33740;SDS011;20065;48.380;10.892;2023-05-15T06:40:39;18.37;;;11.10;;
33740;SDS011;20065;48.380;10.892;2023-05-15T06:43:26;17.20;;;10.00;;
33740;SDS011;20065;48.380;10.892;2023-05-15T06:46:12;16.10;;;11.60;;
33740;SDS011;20065;48.380;10.892;2023-05-15T06:49:00;14.20;;;10.93;;
33740;SDS011;20065;48.380;10.892;2023-05-15T06:51:47;14.40;;;10.70;;
33740;SDS011;20065;48.380;10.892;2023-05-15T06:54:33;18.40;;;10.50;;
33740;SDS011;20065;48.380;10.892;2023-05-15T06:57:19;13.63;;;9.83;;
33740;SDS011;20065;48.380;10.892;2023-05-15T07:00:05;14.53;;;10.60;;
33740;SDS011;20065;48.380;10.892;2023-05-15T07:02:52;14.13;;;9.47;;
33740;SDS011;20065;48.380;10.892;2023-05-15T07:05:38;16.70;;;11.23;;
33740;SDS011;20065;48.380;10.892;2023-05-15T07:08:24;14.40;;;10.47;;
33740;SDS011;20065;48.380;10.892;2023-05-15T07:11:11;15.63;;;9.90;;
33740;SDS011;20065;48.380;10.892;2023-05-15T07:13:57;13.73;;;9.90;;
33740;SDS011;20065;48.380;10.892;2023-05-15T07:16:44;14.20;;;9.90;;
33740;SDS011;20065;48.380;10.892;2023-05-15T07:19:31;15.40;;;10.40;;
33740;SDS011;20065;48.380;10.892;2023-05-15T07:22:17;14.43;;;11.23;;
33740;SDS011;20065;48.380;10.892;2023-05-15T07:25:04;12.70;;;10.03;;
33740;SDS011;20065;48.380;10.892;2023-05-15T07:27:51;12.80;;;8.93;;
33740;SDS011;20065;48.380;10.892;2023-05-15T07:30:37;12.50;;;9.87;;
33740;SDS011;20065;48.380;10.892;2023-05-15T07:33:23;14.13;;;10.83;;
33740;SDS011;20065;48.380;10.892;2023-05-15T07:36:09;16.60;;;10.30;;
33740;SDS011;20065;48.380;10.892;2023-05-15T07:38:56;12.97;;;9.00;;
33740;SDS011;20065;48.380;10.892;2023-05-15T07:41:42;11.20;;;8.70;;
33740;SDS011;20065;48.380;10.892;2023-05-15T07:44:28;12.97;;;9.47;;
33740;SDS011;20065;48.380;10.892;2023-05-15T07:47:14;15.23;;;9.90;;
33740;SDS011;20065;48.380;10.892;2023-05-15T07:50:01;12.33;;;10.03;;
33740;SDS011;20065;48.380;10.892;2023-05-15T07:52:47;11.20;;;9.33;;
33740;SDS011;20065;48.380;10.892;2023-05-15T07:55:34;12.40;;;9.30;;
33740;SDS011;20065;48.380;10.892;2023-05-15T07:58:21;15.10;;;9.50;;
33740;SDS011;20065;48.380;10.892;2023-05-15T08:01:07;14.73;;;9.57;;
33740;SDS011;20065;48.380;10.892;2023-05-15T08:03:54;11.87;;;9.23;;
33740;SDS011;20065;48.380;10.892;2023-05-15T08:06:40;14.40;;;9.00;;
33740;SDS011;20065;48.380;10.892;2023-05-15T08:09:26;11.23;;;7.83;;
33740;SDS011;20065;48.380;10.892;2023-05-15T08:12:13;11.53;;;8.50;;
33740;SDS011;20065;48.380;10.892;2023-05-15T08:15:05;12.03;;;8.40;;
33740;SDS011;20065;48.380;10.892;2023-05-15T08:17:51;11.67;;;8.80;;
33740;SDS011;20065;48.380;10.892;2023-05-15T08:20:38;11.17;;;7.67;;
33740;SDS011;20065;48.380;10.892;2023-05-15T08:23:24;10.60;;;7.80;;
33740;SDS011;20065;48.380;10.892;2023-05-15T08:26:10;12.97;;;9.30;;
33740;SDS011;20065;48.380;10.892;2023-05-15T08:28:56;10.63;;;8.37;;
33740;SDS011;20065;48.380;10.892;2023-05-15T08:31:42;10.77;;;7.97;;
33740;SDS011;20065;48.380;10.892;2023-05-15T08:34:28;10.20;;;7.43;;
33740;SDS011;20065;48.380;10.892;2023-05-15T08:37:15;11.70;;;7.23;;
33740;SDS011;20065;48.380;10.892;2023-05-15T08:40:01;11.63;;;7.30;;
33740;SDS011;20065;48.380;10.892;2023-05-15T08:42:51;9.07;;;7.30;;
33740;SDS011;20065;48.380;10.892;2023-05-15T08:45:39;9.13;;;7.57;;
33740;SDS011;20065;48.380;10.892;2023-05-15T08:48:29;9.27;;;7.00;;
33740;SDS011;20065;48.380;10.892;2023-05-15T08:51:19;8.87;;;7.50;;
33740;SDS011;20065;48.380;10.892;2023-05-15T08:54:08;10.43;;;7.70;;
33740;SDS011;20065;48.380;10.892;2023-05-15T08:56:56;9.03;;;6.97;;
33740;SDS011;20065;48.380;10.892;2023-05-15T08:59:42;9.27;;;6.83;;
33740;SDS011;20065;48.380;10.892;2023-05-15T09:02:29;9.10;;;6.80;;
33740;SDS011;20065;48.380;10.892;2023-05-15T09:05:15;9.70;;;7.37;;
33740;SDS011;20065;48.380;10.892;2023-05-15T09:08:02;13.80;;;8.77;;
33740;SDS011;20065;48.380;10.892;2023-05-15T09:10:51;14.30;;;9.70;;
33740;SDS011;20065;48.380;10.892;2023-05-15T09:13:38;27.00;;;12.93;;
33740;SDS011;20065;48.380;10.892;2023-05-15T09:16:24;15.27;;;10.57;;
33740;SDS011;20065;48.380;10.892;2023-05-15T09:19:21;15.57;;;11.00;;
33740;SDS011;20065;48.380;10.892;2023-05-15T09:22:17;13.40;;;11.00;;
33740;SDS011;20065;48.380;10.892;2023-05-15T09:25:11;12.90;;;10.40;;
33740;SDS011;20065;48.380;10.892;2023-05-15T09:27:58;13.03;;;9.67;;
33740;SDS011;20065;48.380;10.892;2023-05-15T09:30:47;17.30;;;10.47;;
33740;SDS011;20065;48.380;10.892;2023-05-15T09:33:39;17.60;;;11.23;;
33740;SDS011;20065;48.380;10.892;2023-05-15T09:36:27;16.17;;;10.60;;
33740;SDS011;20065;48.380;10.892;2023-05-15T09:39:14;16.17;;;10.80;;
33740;SDS011;20065;48.380;10.892;2023-05-15T09:42:08;15.27;;;11.73;;
33740;SDS011;20065;48.380;10.892;2023-05-15T09:44:55;13.63;;;11.20;;
33740;SDS011;20065;48.380;10.892;2023-05-15T09:47:42;14.03;;;11.27;;
33740;SDS011;20065;48.380;10.892;2023-05-15T09:50:35;14.17;;;10.33;;
33740;SDS011;20065;48.380;10.892;2023-05-15T09:53:27;15.53;;;10.40;;
33740;SDS011;20065;48.380;10.892;2023-05-15T09:56:14;14.30;;;11.60;;
33740;SDS011;20065;48.380;10.892;2023-05-15T09:59:01;13.93;;;9.10;;
33740;SDS011;20065;48.380;10.892;2023-05-15T10:01:48;13.17;;;9.20;;
33740;SDS011;20065;48.380;10.892;2023-05-15T10:04:36;10.80;;;8.30;;
33740;SDS011;20065;48.380;10.892;2023-05-15T10:07:32;10.40;;;7.50;;
33740;SDS011;20065;48.380;10.892;2023-05-15T10:10:23;9.03;;;7.20;;
33740;SDS011;20065;48.380;10.892;2023-05-15T10:13:10;8.80;;;7.10;;
33740;SDS011;20065;48.380;10.892;2023-05-15T10:15:57;9.43;;;7.13;;
33740;SDS011;20065;48.380;10.892;2023-05-15T10:18:46;14.73;;;9.30;;
33740;SDS011;20065;48.380;10.892;2023-05-15T10:21:36;10.57;;;7.37;;
33740;SDS011;20065;48.380;10.892;2023-05-15T10:24:24;9.20;;;7.00;;
33740;SDS011;20065;48.380;10.892;2023-05-15T10:27:14;11.07;;;7.30;;
33740;SDS011;20065;48.380;10.892;2023-05-15T10:30:02;9.63;;;7.00;;
33740;SDS011;20065;48.380;10.892;2023-05-15T10:32:48;8.43;;;5.80;;
33740;SDS011;20065;48.380;10.892;2023-05-15T10:35:35;7.90;;;5.67;;
33740;SDS011;20065;48.380;10.892;2023-05-15T10:38:24;8.70;;;5.63;;
33740;SDS011;20065;48.380;10.892;2023-05-15T10:41:14;6.87;;;4.23;;
33740;SDS011;20065;48.380;10.892;2023-05-15T10:44:06;4.47;;;3.10;;
33740;SDS011;20065;48.380;10.892;2023-05-15T10:46:53;5.90;;;4.23;;
33740;SDS011;20065;48.380;10.892;2023-05-15T10:49:40;6.40;;;4.10;;
33740;SDS011;20065;48.380;10.892;2023-05-15T10:52:26;6.67;;;4.10;;
33740;SDS011;20065;48.380;10.892;2023-05-15T10:55:13;5.83;;;3.70;;
33740;SDS011;20065;48.380;10.892;2023-05-15T10:58:07;5.17;;;3.77;;
33740;SDS011;20065;48.380;10.892;2023-05-15T11:00:54;4.80;;;3.43;;
33740;SDS011;20065;48.380;10.892;2023-05-15T11:03:40;4.97;;;3.77;;
33740;SDS011;20065;48.380;10.892;2023-05-15T11:06:27;6.70;;;4.07;;
33740;SDS011;20065;48.380;10.892;2023-05-15T11:12:12;4.67;;;3.50;;
33740;SDS011;20065;48.380;10.892;2023-05-15T11:18:00;7.23;;;3.23;;
33740;SDS011;20065;48.380;10.892;2023-05-15T11:23:38;7.00;;;4.10;;
33740;SDS011;20065;48.380;10.892;2023-05-15T11:26:32;6.00;;;4.30;;
33740;SDS011;20065;48.380;10.892;2023-05-15T11:29:18;6.17;;;4.70;;
33740;SDS011;20065;48.380;10.892;2023-05-15T11:38:23;9.17;;;5.80;;
33740;SDS011;20065;48.380;10.892;2023-05-15T11:41:19;7.60;;;5.70;;
33740;SDS011;20065;48.380;10.892;2023-05-15T11:44:18;8.13;;;6.20;;
33740;SDS011;20065;48.380;10.892;2023-05-15T11:47:09;7.50;;;5.43;;
33740;SDS011;20065;48.380;10.892;2023-05-15T11:49:55;6.17;;;4.70;;
33740;SDS011;20065;48.380;10.892;2023-05-15T11:52:42;5.40;;;4.50;;
33740;SDS011;20065;48.380;10.892;2023-05-15T11:55:29;8.80;;;5.97;;
33740;SDS011;20065;48.380;10.892;2023-05-15T11:58:18;8.00;;;5.47;;
33740;SDS011;20065;48.380;10.892;2023-05-15T12:01:09;5.70;;;4.87;;
33740;SDS011;20065;48.380;10.892;2023-05-15T12:03:56;7.67;;;5.40;;
33740;SDS011;20065;48.380;10.892;2023-05-15T12:06:48;8.80;;;5.83;;
33740;SDS011;20065;48.380;10.892;2023-05-15T12:09:34;11.37;;;6.40;;
33740;SDS011;20065;48.380;10.892;2023-05-15T12:12:20;13.23;;;7.10;;
33740;SDS011;20065;48.380;10.892;2023-05-15T12:15:08;7.27;;;3.33;;
33740;SDS011;20065;48.380;10.892;2023-05-15T12:17:56;6.50;;;3.50;;
33740;SDS011;20065;48.380;10.892;2023-05-15T12:20:42;7.70;;;4.00;;
33740;SDS011;20065;48.380;10.892;2023-05-15T12:23:31;8.90;;;4.77;;
33740;SDS011;20065;48.380;10.892;2023-05-15T12:26:17;12.67;;;5.87;;
33740;SDS011;20065;48.380;10.892;2023-05-15T12:29:05;7.40;;;4.30;;
33740;SDS011;20065;48.380;10.892;2023-05-15T12:32:02;6.50;;;4.87;;
33740;SDS011;20065;48.380;10.892;2023-05-15T12:34:52;8.10;;;5.37;;
33740;SDS011;20065;48.380;10.892;2023-05-15T12:37:40;10.13;;;6.50;;
33740;SDS011;20065;48.380;10.892;2023-05-15T12:40:27;8.70;;;6.73;;
33740;SDS011;20065;48.380;10.892;2023-05-15T12:43:13;13.67;;;9.13;;
33740;SDS011;20065;48.380;10.892;2023-05-15T12:45:59;11.90;;;8.50;;
33740;SDS011;20065;48.380;10.892;2023-05-15T12:48:45;11.60;;;9.50;;
33740;SDS011;20065;48.380;10.892;2023-05-15T12:51:32;9.73;;;6.33;;
33740;SDS011;20065;48.380;10.892;2023-05-15T12:54:19;11.17;;;6.67;;
33740;SDS011;20065;48.380;10.892;2023-05-15T12:57:06;8.10;;;5.87;;
33740;SDS011;20065;48.380;10.892;2023-05-15T12:59:53;9.10;;;6.67;;
33740;SDS011;20065;48.380;10.892;2023-05-15T13:02:43;7.13;;;5.73;;
33740;SDS011;20065;48.380;10.892;2023-05-15T13:05:35;7.50;;;5.30;;
33740;SDS011;20065;48.380;10.892;2023-05-15T13:08:22;6.00;;;4.50;;
33740;SDS011;20065;48.380;10.892;2023-05-15T13:11:12;10.03;;;4.80;;
33740;SDS011;20065;48.380;10.892;2023-05-15T13:13:58;7.80;;;5.47;;
33740;SDS011;20065;48.380;10.892;2023-05-15T13:16:45;8.40;;;6.47;;
33740;SDS011;20065;48.380;10.892;2023-05-15T13:19:31;11.20;;;5.57;;
33740;SDS011;20065;48.380;10.892;2023-05-15T13:22:17;9.80;;;6.50;;
33740;SDS011;20065;48.380;10.892;2023-05-15T13:25:04;8.30;;;5.33;;
33740;SDS011;20065;48.380;10.892;2023-05-15T13:27:53;8.17;;;5.80;;
33740;SDS011;20065;48.380;10.892;2023-05-15T13:30:41;8.10;;;6.20;;
33740;SDS011;20065;48.380;10.892;2023-05-15T13:33:27;8.80;;;5.63;;
33740;SDS011;20065;48.380;10.892;2023-05-15T13:36:14;9.23;;;4.93;;
33740;SDS011;20065;48.380;10.892;2023-05-15T13:39:00;6.33;;;3.63;;
33740;SDS011;20065;48.380;10.892;2023-05-15T13:41:46;5.73;;;3.93;;
33740;SDS011;20065;48.380;10.892;2023-05-15T13:44:32;5.77;;;3.57;;
33740;SDS011;20065;48.380;10.892;2023-05-15T13:47:23;6.07;;;3.50;;
33740;SDS011;20065;48.380;10.892;2023-05-15T13:50:13;5.87;;;3.83;;
33740;SDS011;20065;48.380;10.892;2023-05-15T13:53:00;6.17;;;3.90;;
33740;SDS011;20065;48.380;10.892;2023-05-15T13:55:46;8.10;;;4.13;;
33740;SDS011;20065;48.380;10.892;2023-05-15T13:58:33;6.37;;;4.43;;
33740;SDS011;20065;48.380;10.892;2023-05-15T14:01:19;7.50;;;3.87;;
33740;SDS011;20065;48.380;10.892;2023-05-15T14:04:05;6.03;;;4.20;;
33740;SDS011;20065;48.380;10.892;2023-05-15T14:06:51;7.73;;;4.77;;
33740;SDS011;20065;48.380;10.892;2023-05-15T14:09:37;7.43;;;4.90;;
33740;SDS011;20065;48.380;10.892;2023-05-15T14:12:24;6.73;;;4.87;;
33740;SDS011;20065;48.380;10.892;2023-05-15T14:15:12;6.00;;;4.63;;
33740;SDS011;20065;48.380;10.892;2023-05-15T14:17:59;8.53;;;4.70;;
33740;SDS011;20065;48.380;10.892;2023-05-15T14:20:45;5.63;;;4.47;;
33740;SDS011;20065;48.380;10.892;2023-05-15T14:23:31;6.67;;;4.80;;
33740;SDS011;20065;48.380;10.892;2023-05-15T14:26:18;5.47;;;4.03;;
33740;SDS011;20065;48.380;10.892;2023-05-15T14:29:04;7.57;;;4.87;;
33740;SDS011;20065;48.380;10.892;2023-05-15T14:31:50;7.43;;;4.80;;
33740;SDS011;20065;48.380;10.892;2023-05-15T14:34:36;6.97;;;5.50;;
33740;SDS011;20065;48.380;10.892;2023-05-15T14:37:22;6.10;;;4.53;;
33740;SDS011;20065;48.380;10.892;2023-05-15T14:40:08;6.00;;;4.90;;
33740;SDS011;20065;48.380;10.892;2023-05-15T14:43:09;6.63;;;4.57;;
33740;SDS011;20065;48.380;10.892;2023-05-15T14:45:56;7.03;;;4.70;;
33740;SDS011;20065;48.380;10.892;2023-05-15T14:48:42;6.47;;;4.90;;
33740;SDS011;20065;48.380;10.892;2023-05-15T14:51:28;8.03;;;4.80;;
33740;SDS011;20065;48.380;10.892;2023-05-15T14:54:14;6.50;;;4.93;;
33740;SDS011;20065;48.380;10.892;2023-05-15T14:57:00;6.43;;;4.93;;
33740;SDS011;20065;48.380;10.892;2023-05-15T14:59:47;12.20;;;4.70;;
33740;SDS011;20065;48.380;10.892;2023-05-15T15:02:33;8.90;;;4.10;;
33740;SDS011;20065;48.380;10.892;2023-05-15T15:05:19;10.67;;;5.03;;
33740;SDS011;20065;48.380;10.892;2023-05-15T15:08:08;6.20;;;5.00;;
33740;SDS011;20065;48.380;10.892;2023-05-15T15:10:55;6.53;;;5.03;;
33740;SDS011;20065;48.380;10.892;2023-05-15T15:13:41;7.90;;;4.93;;
33740;SDS011;20065;48.380;10.892;2023-05-15T15:16:28;6.23;;;4.50;;
33740;SDS011;20065;48.380;10.892;2023-05-15T15:19:14;5.73;;;4.20;;
33740;SDS011;20065;48.380;10.892;2023-05-15T15:22:00;13.73;;;4.97;;
33740;SDS011;20065;48.380;10.892;2023-05-15T15:24:47;5.90;;;4.40;;
33740;SDS011;20065;48.380;10.892;2023-05-15T15:27:33;6.30;;;4.87;;
33740;SDS011;20065;48.380;10.892;2023-05-15T15:30:21;8.17;;;4.80;;
33740;SDS011;20065;48.380;10.892;2023-05-15T15:33:07;6.97;;;4.37;;
33740;SDS011;20065;48.380;10.892;2023-05-15T15:35:53;7.20;;;4.40;;
33740;SDS011;20065;48.380;10.892;2023-05-15T15:38:40;5.50;;;3.80;;
33740;SDS011;20065;48.380;10.892;2023-05-15T15:41:31;5.03;;;3.80;;
33740;SDS011;20065;48.380;10.892;2023-05-15T15:44:22;5.00;;;3.70;;
33740;SDS011;20065;48.380;10.892;2023-05-15T15:47:08;6.30;;;4.30;;
33740;SDS011;20065;48.380;10.892;2023-05-15T15:49:54;5.70;;;3.83;;
33740;SDS011;20065;48.380;10.892;2023-05-15T15:52:49;9.43;;;3.97;;
33740;SDS011;20065;48.380;10.892;2023-05-15T15:55:39;5.73;;;3.47;;
33740;SDS011;20065;48.380;10.892;2023-05-15T15:58:25;5.93;;;3.50;;
33740;SDS011;20065;48.380;10.892;2023-05-15T16:01:11;5.20;;;3.80;;
33740;SDS011;20065;48.380;10.892;2023-05-15T16:04:01;4.30;;;3.23;;
33740;SDS011;20065;48.380;10.892;2023-05-15T16:06:47;4.80;;;3.40;;
33740;SDS011;20065;48.380;10.892;2023-05-15T16:09:33;4.70;;;3.17;;
33740;SDS011;20065;48.380;10.892;2023-05-15T16:12:21;3.90;;;3.20;;
33740;SDS011;20065;48.380;10.892;2023-05-15T16:15:07;5.03;;;3.10;;
33740;SDS011;20065;48.380;10.892;2023-05-15T16:17:54;5.93;;;3.50;;
33740;SDS011;20065;48.380;10.892;2023-05-15T16:20:41;5.23;;;3.40;;
33740;SDS011;20065;48.380;10.892;2023-05-15T16:23:27;4.30;;;2.93;;
33740;SDS011;20065;48.380;10.892;2023-05-15T16:26:17;5.93;;;3.17;;
33740;SDS011;20065;48.380;10.892;2023-05-15T16:29:03;4.17;;;2.73;;
33740;SDS011;20065;48.380;10.892;2023-05-15T16:31:49;8.83;;;3.60;;
33740;SDS011;20065;48.380;10.892;2023-05-15T16:34:36;4.80;;;3.60;;
33740;SDS011;20065;48.380;10.892;2023-05-15T16:37:22;4.97;;;3.47;;
33740;SDS011;20065;48.380;10.892;2023-05-15T16:40:09;7.97;;;3.60;;
33740;SDS011;20065;48.380;10.892;2023-05-15T16:42:55;5.20;;;4.17;;
33740;SDS011;20065;48.380;10.892;2023-05-15T16:45:42;8.77;;;4.60;;